<?xml version="1.0" encoding="UTF-8"?><gpx version="1.0"><name>FlightAirMap GPX Feed</name><trk><name>AAL313 American Airlines | N909AN B737-823 (B738) | TTPP - KMIA</name><number>1</number><trkseg><trkpt lat="10.6006" lon="-61.3401"><ele>53.33</ele><time>2026-05-08T15:01:27+00:00</time></trkpt><trkpt lat="10.6006" lon="-61.3402"><ele>53.38</ele><time>2026-05-08T15:09:59+00:00</time></trkpt><trkpt lat="10.6004" lon="-61.3417"><ele>80.26</ele><time>2026-05-08T15:14:46+00:00</time></trkpt><trkpt lat="10.5963" lon="-61.3506"><ele>70.51</ele><time>2026-05-08T15:19:55+00:00</time></trkpt><trkpt lat="10.6176" lon="-61.2732"><ele>2390.04</ele><time>2026-05-08T15:24:36+00:00</time></trkpt><trkpt lat="10.9014" lon="-61.5057"><ele>14135</ele><time>2026-05-08T15:29:42+00:00</time></trkpt><trkpt lat="11.0243" lon="-61.5867"><ele>17820.3</ele><time>2026-05-08T15:34:46+00:00</time></trkpt><trkpt lat="11.4689" lon="-61.8804"><ele>26642.4</ele><time>2026-05-08T15:39:50+00:00</time></trkpt><trkpt lat="11.9539" lon="-62.2019"><ele>32069.8</ele><time>2026-05-08T15:44:55+00:00</time></trkpt><trkpt lat="12.4577" lon="-62.5374"><ele>36012.9</ele><time>2026-05-08T15:50:00+00:00</time></trkpt><trkpt lat="12.9587" lon="-62.8727"><ele>38000</ele><time>2026-05-08T15:54:34+00:00</time></trkpt><trkpt lat="13.4626" lon="-63.1991"><ele>38000.1</ele><time>2026-05-08T15:59:39+00:00</time></trkpt><trkpt lat="13.97" lon="-63.5099"><ele>38000</ele><time>2026-05-08T16:04:44+00:00</time></trkpt><trkpt lat="14.4773" lon="-63.8224"><ele>38000</ele><time>2026-05-08T16:09:48+00:00</time></trkpt><trkpt lat="14.9841" lon="-64.1363"><ele>38000.1</ele><time>2026-05-08T16:14:53+00:00</time></trkpt><trkpt lat="15.4526" lon="-64.5216"><ele>38000</ele><time>2026-05-08T16:19:58+00:00</time></trkpt><trkpt lat="15.9194" lon="-64.911"><ele>38000.1</ele><time>2026-05-08T16:25:03+00:00</time></trkpt><trkpt lat="16.3904" lon="-65.3064"><ele>37999.9</ele><time>2026-05-08T16:29:38+00:00</time></trkpt><trkpt lat="16.8606" lon="-65.7037"><ele>38000.1</ele><time>2026-05-08T16:34:42+00:00</time></trkpt><trkpt lat="17.3286" lon="-66.1016"><ele>38000</ele><time>2026-05-08T16:39:46+00:00</time></trkpt><trkpt lat="17.7948" lon="-66.5008"><ele>38000</ele><time>2026-05-08T16:44:50+00:00</time></trkpt><trkpt lat="18.2596" lon="-66.9014"><ele>37999.2</ele><time>2026-05-08T16:49:55+00:00</time></trkpt><trkpt lat="18.6833" lon="-67.3539"><ele>38000</ele><time>2026-05-08T16:54:58+00:00</time></trkpt><trkpt lat="19.063" lon="-67.8605"><ele>37999.7</ele><time>2026-05-08T17:00:03+00:00</time></trkpt><trkpt lat="19.4423" lon="-68.3708"><ele>38000</ele><time>2026-05-08T17:04:38+00:00</time></trkpt><trkpt lat="19.8201" lon="-68.8832"><ele>38000</ele><time>2026-05-08T17:09:42+00:00</time></trkpt><trkpt lat="20.1589" lon="-69.4161"><ele>38000</ele><time>2026-05-08T17:14:47+00:00</time></trkpt><trkpt lat="20.4896" lon="-69.9523"><ele>37999.9</ele><time>2026-05-08T17:19:51+00:00</time></trkpt><trkpt lat="20.8183" lon="-70.49"><ele>38000</ele><time>2026-05-08T17:24:56+00:00</time></trkpt><trkpt lat="21.1445" lon="-71.0288"><ele>38000.1</ele><time>2026-05-08T17:30:00+00:00</time></trkpt><trkpt lat="21.4704" lon="-71.5723"><ele>38000.2</ele><time>2026-05-08T17:35:04+00:00</time></trkpt><trkpt lat="21.7942" lon="-72.1176"><ele>38000.1</ele><time>2026-05-08T17:39:38+00:00</time></trkpt><trkpt lat="22.116" lon="-72.665"><ele>38000</ele><time>2026-05-08T17:44:42+00:00</time></trkpt><trkpt lat="22.4348" lon="-73.2129"><ele>37999.9</ele><time>2026-05-08T17:49:46+00:00</time></trkpt><trkpt lat="22.7474" lon="-73.756"><ele>38000.4</ele><time>2026-05-08T17:54:50+00:00</time></trkpt><trkpt lat="23.0579" lon="-74.301"><ele>38000</ele><time>2026-05-08T17:59:54+00:00</time></trkpt><trkpt lat="23.3672" lon="-74.8498"><ele>37998.5</ele><time>2026-05-08T18:04:58+00:00</time></trkpt><trkpt lat="23.564" lon="-75.4578"><ele>38000</ele><time>2026-05-08T18:10:03+00:00</time></trkpt><trkpt lat="23.748" lon="-76.073"><ele>38000</ele><time>2026-05-08T18:14:38+00:00</time></trkpt><trkpt lat="23.9296" lon="-76.6898"><ele>38000.1</ele><time>2026-05-08T18:19:42+00:00</time></trkpt><trkpt lat="24.1066" lon="-77.3011"><ele>38000.1</ele><time>2026-05-08T18:24:47+00:00</time></trkpt><trkpt lat="24.2905" lon="-77.905"><ele>38001.3</ele><time>2026-05-08T18:29:51+00:00</time></trkpt><trkpt lat="24.6787" lon="-78.5417"><ele>33427.6</ele><time>2026-05-08T18:34:56+00:00</time></trkpt><trkpt lat="24.9046" lon="-78.9148"><ele>29559</ele><time>2026-05-08T18:40:01+00:00</time></trkpt><trkpt lat="25.3318" lon="-79.6286"><ele>17996.2</ele><time>2026-05-08T18:44:36+00:00</time></trkpt><trkpt lat="25.5462" lon="-79.9701"><ele>12294.7</ele><time>2026-05-08T18:49:42+00:00</time></trkpt><trkpt lat="25.7081" lon="-80.3707"><ele>6123.61</ele><time>2026-05-08T18:54:48+00:00</time></trkpt><trkpt lat="25.7768" lon="-80.5233"><ele>3521.54</ele><time>2026-05-08T18:59:54+00:00</time></trkpt><trkpt lat="25.7884" lon="-80.2866"><ele>20.02</ele><time>2026-05-08T19:05:02+00:00</time></trkpt><trkpt lat="25.7917" lon="-80.2823"><ele>16.54</ele><time>2026-05-08T19:09:21+00:00</time></trkpt></trkseg></trk></gpx>